Time;durP1;ratioP1;P1;durP2;ratioP2;P2;SDS_P1;SDS_P2;PMS_P1;PMS_P2;Temp;Humidity;BMP_temperature;BMP_pressure;BME280_temperature;BME280_humidity;BME280_pressure;Samples;Min_cycle;Max_cycle;Signal;HPM_P1;HPM_P2
2021/03/14 00:04:21;;;;;;;1.40;0.50;;;18.70;54.00;;;;;;10457074;28;20262;-25
2021/03/14 00:09:43;;;;;;;0.70;0.50;;;18.70;54.20;;;;;;10456280;28;20225;-25
2021/03/14 00:15:06;;;;;;;1.20;0.60;;;18.70;54.10;;;;;;10448184;28;20415;-25
2021/03/14 00:20:29;;;;;;;0.80;0.60;;;18.70;54.10;;;;;;10455531;28;20204;-24
2021/03/14 00:25:50;;;;;;;0.93;0.50;;;18.70;54.00;;;;;;10457017;28;20220;-25
2021/03/14 00:31:12;;;;;;;0.80;0.50;;;18.70;54.00;;;;;;10456532;28;20196;-27
2021/03/14 00:36:34;;;;;;;1.17;0.60;;;18.60;54.00;;;;;;10420939;28;20221;-24
2021/03/14 00:41:56;;;;;;;1.27;0.40;;;18.60;54.20;;;;;;10418850;28;20194;-24
2021/03/14 00:47:18;;;;;;;1.07;0.40;;;18.60;54.00;;;;;;10420322;28;20216;-24
2021/03/14 00:52:40;;;;;;;0.90;0.50;;;18.60;54.10;;;;;;10457352;28;20197;-25
2021/03/14 00:58:02;;;;;;;1.10;0.60;;;18.60;54.10;;;;;;10457311;28;20765;-24
2021/03/14 01:03:24;;;;;;;0.60;0.30;;;18.60;54.10;;;;;;10444878;28;20283;-24
2021/03/14 01:08:46;;;;;;;0.53;0.33;;;18.60;54.00;;;;;;10453919;28;20664;-24
2021/03/14 01:14:08;;;;;;;0.80;0.60;;;18.60;54.10;;;;;;10454323;28;20275;-24
2021/03/14 01:19:29;;;;;;;0.63;0.40;;;18.50;54.20;;;;;;10453365;28;20197;-24
2021/03/14 01:24:52;;;;;;;0.80;0.20;;;18.50;54.70;;;;;;10453135;28;20220;-21
2021/03/14 01:30:15;;;;;;;0.60;0.47;;;18.50;54.10;;;;;;10453242;28;20330;-24
2021/03/14 01:35:37;;;;;;;0.50;0.40;;;18.50;54.20;;;;;;10426201;28;20226;-24
2021/03/14 01:41:00;;;;;;;0.90;0.40;;;18.50;54.20;;;;;;10411712;28;20204;-25
2021/03/14 01:46:22;;;;;;;0.67;0.40;;;18.50;54.10;;;;;;10411355;28;20209;-24
2021/03/14 01:51:44;;;;;;;0.60;0.40;;;18.50;54.70;;;;;;10410734;28;20672;-24
2021/03/14 01:57:07;;;;;;;0.50;0.30;;;18.40;54.30;;;;;;10410962;28;20232;-24
2021/03/14 02:02:29;;;;;;;0.40;0.30;;;18.40;54.20;;;;;;10430518;28;20189;-24
2021/03/14 02:07:52;;;;;;;0.43;0.27;;;18.40;54.20;;;;;;10452571;28;20189;-24
2021/03/14 02:13:18;;;;;;;0.80;0.50;;;18.40;54.20;;;;;;10453393;28;20209;-24
2021/03/14 02:18:44;;;;;;;0.70;0.40;;;18.40;54.10;;;;;;10459967;28;20220;-24
2021/03/14 02:24:13;;;;;;;0.80;0.30;;;18.40;54.20;;;;;;10462269;28;20221;-25
2021/03/14 02:29:36;;;;;;;1.07;0.40;;;18.40;54.20;;;;;;10460580;28;20239;-24
2021/03/14 02:35:01;;;;;;;0.50;0.40;;;18.40;54.10;;;;;;10458973;28;20209;-24
2021/03/14 02:40:24;;;;;;;0.30;0.20;;;18.40;54.20;;;;;;10448658;28;20204;-24
2021/03/14 02:45:46;;;;;;;0.70;0.30;;;18.40;54.10;;;;;;10460171;28;20213;-24
2021/03/14 02:51:09;;;;;;;1.33;0.40;;;18.40;54.10;;;;;;10459669;28;20580;-23
2021/03/14 02:56:30;;;;;;;1.00;0.30;;;18.40;54.10;;;;;;10459168;28;20304;-24
2021/03/14 03:01:54;;;;;;;0.40;0.30;;;18.30;54.00;;;;;;10440670;28;20750;-25
2021/03/14 03:07:17;;;;;;;0.50;0.20;;;18.30;54.10;;;;;;10427187;28;20623;-26
2021/03/14 03:12:40;;;;;;;0.60;0.40;;;18.30;54.10;;;;;;10457196;28;20203;-25
2021/03/14 03:18:03;;;;;;;0.30;0.20;;;18.30;54.10;;;;;;10456960;28;20213;-26
2021/03/14 03:23:25;;;;;;;0.60;0.37;;;18.30;54.10;;;;;;10456519;28;20232;-25
2021/03/14 03:28:49;;;;;;;0.70;0.40;;;18.30;54.20;;;;;;10458331;28;20189;-25
2021/03/14 03:34:12;;;;;;;0.50;0.30;;;18.30;54.10;;;;;;10456223;28;20216;-25
2021/03/14 03:39:34;;;;;;;0.20;0.20;;;18.30;54.10;;;;;;10458243;28;20580;-25
2021/03/14 03:44:58;;;;;;;0.40;0.20;;;18.30;54.10;;;;;;10441499;28;20228;-25
2021/03/14 03:50:21;;;;;;;1.10;0.40;;;18.30;54.00;;;;;;10457556;28;20201;-25
2021/03/14 03:55:44;;;;;;;1.03;0.40;;;18.30;54.10;;;;;;10455772;28;20221;-26
2021/03/14 04:01:09;;;;;;;0.67;0.20;;;18.30;54.10;;;;;;10456920;28;20197;-26
2021/03/14 04:06:32;;;;;;;0.83;0.30;;;18.20;54.20;;;;;;10456564;28;20626;-24
2021/03/14 04:11:55;;;;;;;0.77;0.33;;;18.20;54.00;;;;;;10446839;28;20252;-25
2021/03/14 04:17:17;;;;;;;0.40;0.30;;;18.20;54.00;;;;;;10442649;28;20684;-25
2021/03/14 04:22:43;;;;;;;0.30;0.20;;;18.20;54.10;;;;;;10455816;28;20193;-24
2021/03/14 04:28:06;;;;;;;0.67;0.27;;;18.20;54.10;;;;;;10456502;28;20185;-25
2021/03/14 04:33:29;;;;;;;0.63;0.20;;;18.20;54.10;;;;;;10455274;28;20221;-24
2021/03/14 04:38:52;;;;;;;0.50;0.27;;;18.20;54.10;;;;;;10447136;28;20264;-23
2021/03/14 04:44:17;;;;;;;0.73;0.20;;;18.20;54.20;;;;;;10406948;28;20218;-26
2021/03/14 04:49:38;;;;;;;0.50;0.17;;;18.20;54.10;;;;;;10414436;28;20226;-24
2021/03/14 04:55:02;;;;;;;1.07;0.40;;;18.20;54.10;;;;;;10413556;28;20267;-24
2021/03/14 05:00:25;;;;;;;1.10;0.40;;;18.20;54.10;;;;;;10411548;28;20198;-26
2021/03/14 05:05:47;;;;;;;0.20;0.13;;;18.10;54.10;;;;;;10413390;28;20268;-24
2021/03/14 05:11:09;;;;;;;0.27;0.20;;;18.20;54.20;;;;;;10436388;28;20201;-24
2021/03/14 05:16:32;;;;;;;0.43;0.27;;;18.10;54.20;;;;;;10453494;28;20220;-25
2021/03/14 05:21:53;;;;;;;0.80;0.10;;;18.10;54.00;;;;;;10370808;28;20573;-24
2021/03/14 05:27:17;;;;;;;0.70;0.30;;;18.10;54.20;;;;;;10370631;28;20685;-24
2021/03/14 05:32:39;;;;;;;0.33;0.20;;;18.10;54.10;;;;;;10370848;28;20581;-25
2021/03/14 05:38:01;;;;;;;0.77;0.20;;;18.10;54.00;;;;;;10370649;28;20597;-24
2021/03/14 05:43:24;;;;;;;0.47;0.30;;;18.20;54.20;;;;;;10450194;28;20318;-23
2021/03/14 05:48:46;;;;;;;0.43;0.20;;;18.10;54.10;;;;;;10475716;28;20212;-24
2021/03/14 05:54:10;;;;;;;0.60;0.37;;;18.10;54.10;;;;;;10475621;28;20224;-24
2021/03/14 05:59:32;;;;;;;0.63;0.30;;;18.10;54.20;;;;;;10456172;28;20596;-25
2021/03/14 06:04:54;;;;;;;0.77;0.30;;;18.10;54.10;;;;;;10453339;28;20212;-24
2021/03/14 06:10:16;;;;;;;0.50;0.20;;;18.10;54.20;;;;;;10451941;28;20228;-24
2021/03/14 06:15:39;;;;;;;0.47;0.20;;;18.10;54.10;;;;;;10441502;28;20595;-25
2021/03/14 06:21:02;;;;;;;0.30;0.13;;;18.10;54.00;;;;;;10451581;28;20193;-24
2021/03/14 06:26:32;;;;;;;0.63;0.20;;;18.10;54.00;;;;;;10451393;28;20548;-24
2021/03/14 06:31:59;;;;;;;1.00;0.40;;;18.10;54.00;;;;;;10452421;28;20196;-25
2021/03/14 06:37:20;;;;;;;0.47;0.20;;;18.10;54.00;;;;;;10451463;28;20217;-24
2021/03/14 06:42:43;;;;;;;1.50;0.40;;;18.10;54.00;;;;;;10448705;28;20250;-24
2021/03/14 06:48:07;;;;;;;1.23;0.40;;;18.10;54.00;;;;;;10440279;28;20274;-24
2021/03/14 06:53:29;;;;;;;0.60;0.20;;;18.10;54.00;;;;;;10450120;28;20224;-25
2021/03/14 06:58:50;;;;;;;0.50;0.20;;;18.10;53.90;;;;;;10456249;28;20691;-26
2021/03/14 07:04:13;;;;;;;0.50;0.30;;;18.10;54.00;;;;;;10458889;28;20216;-24
2021/03/14 07:09:34;;;;;;;0.30;0.20;;;18.10;54.00;;;;;;10451797;28;20212;-24
2021/03/14 07:14:56;;;;;;;0.90;0.27;;;18.10;53.90;;;;;;10458308;28;20255;-25
2021/03/14 07:20:21;;;;;;;0.50;0.27;;;18.10;54.00;;;;;;10458469;28;20196;-26
2021/03/14 07:25:44;;;;;;;0.90;0.20;;;18.10;54.20;;;;;;10459062;28;20217;-24
2021/03/14 07:31:06;;;;;;;0.40;0.20;;;18.20;54.10;;;;;;10424848;28;20211;-24
2021/03/14 07:36:29;;;;;;;0.80;0.30;;;18.10;53.90;;;;;;10375759;28;20624;-24
2021/03/14 07:41:52;;;;;;;0.50;0.40;;;18.10;53.90;;;;;;10419763;28;20204;-24
2021/03/14 07:47:15;;;;;;;0.13;0.10;;;18.10;53.80;;;;;;10456692;28;20221;-26
2021/03/14 07:52:41;;;;;;;1.27;0.40;;;18.10;53.70;;;;;;10457845;28;20319;-24
2021/03/14 07:58:04;;;;;;;0.73;0.43;;;18.20;53.90;;;;;;10457012;28;20699;-24
2021/03/14 08:03:36;;;;;;;1.37;0.50;;;18.20;53.90;;;;;;10456847;28;20217;-23
2021/03/14 08:08:59;;;;;;;0.63;0.40;;;18.20;53.80;;;;;;10455779;28;20204;-24
2021/03/14 08:14:42;;;;;;;0.83;0.20;;;18.10;53.90;;;;;;10456633;28;20217;-24
2021/03/14 08:20:05;;;;;;;0.53;0.27;;;18.10;53.90;;;;;;10456253;28;20227;-25
2021/03/14 08:25:30;;;;;;;2.07;0.60;;;18.20;53.90;;;;;;10413545;28;20227;-23
2021/03/14 08:30:52;;;;;;;0.90;0.30;;;18.20;54.00;;;;;;10413881;28;20198;-24
2021/03/14 08:36:15;;;;;;;0.87;0.30;;;18.20;53.90;;;;;;10413012;28;20210;-24
2021/03/14 08:41:48;;;;;;;0.67;0.20;;;18.20;53.90;;;;;;10413154;28;20201;-25
2021/03/14 08:47:11;;;;;;;0.97;0.40;;;18.20;53.80;;;;;;10413585;28;20589;-24
2021/03/14 08:52:32;;;;;;;0.50;0.20;;;18.30;53.60;;;;;;10415782;28;20197;-24
2021/03/14 08:57:55;;;;;;;0.80;0.30;;;18.30;53.80;;;;;;10454426;28;20216;-25
2021/03/14 09:03:16;;;;;;;0.73;0.40;;;18.20;53.80;;;;;;10453138;28;20217;-24
2021/03/14 09:08:38;;;;;;;2.60;0.70;;;18.40;53.60;;;;;;10454031;28;20692;-24
2021/03/14 09:14:17;;;;;;;0.57;0.30;;;18.30;53.60;;;;;;10446824;28;20232;-24
2021/03/14 09:19:42;;;;;;;1.07;0.40;;;18.30;53.80;;;;;;10421860;28;20216;-24
2021/03/14 09:25:05;;;;;;;1.37;0.50;;;18.20;53.90;;;;;;10452578;28;20217;-25
2021/03/14 09:30:28;;;;;;;1.37;0.40;;;18.20;53.90;;;;;;10452003;28;20197;-25
2021/03/14 09:35:50;;;;;;;0.70;0.43;;;18.20;54.00;;;;;;10453035;28;20209;-23
2021/03/14 09:41:11;;;;;;;1.17;0.40;;;18.20;54.00;;;;;;10432663;28;20205;-24
2021/03/14 09:46:34;;;;;;;1.23;0.50;;;18.20;54.60;;;;;;10411678;28;20616;-24
2021/03/14 09:51:56;;;;;;;1.80;0.33;;;18.20;54.00;;;;;;10411129;28;20198;-24
2021/03/14 09:57:21;;;;;;;1.90;0.57;;;18.20;54.00;;;;;;10412137;28;20221;-25
2021/03/14 10:02:43;;;;;;;1.63;0.60;;;18.10;54.10;;;;;;10411871;28;20201;-24
2021/03/14 10:08:07;;;;;;;2.40;0.40;;;18.20;54.20;;;;;;10411796;28;20201;-25
2021/03/14 10:13:29;;;;;;;1.10;0.53;;;18.20;54.10;;;;;;10405800;28;20220;-25
2021/03/14 10:18:58;;;;;;;1.47;0.60;;;18.20;54.10;;;;;;10450477;28;20220;-25
2021/03/14 10:24:21;;;;;;;3.30;0.60;;;18.20;54.20;;;;;;10445490;28;20640;-24
2021/03/14 10:29:44;;;;;;;1.20;0.60;;;18.10;54.10;;;;;;10450866;28;20193;-26
2021/03/14 10:35:11;;;;;;;0.90;0.50;;;18.10;54.20;;;;;;10458676;28;20223;-24
2021/03/14 10:40:33;;;;;;;3.63;0.50;;;18.10;54.20;;;;;;10460029;28;20193;-24
2021/03/14 10:45:54;;;;;;;1.13;0.70;;;18.20;54.90;;;;;;10459477;28;20298;-24
2021/03/14 10:51:17;;;;;;;1.40;0.60;;;18.10;54.30;;;;;;10449176;28;20204;-24
2021/03/14 10:56:40;;;;;;;0.90;0.50;;;18.10;54.30;;;;;;10459226;28;20587;-24
2021/03/14 11:02:13;;;;;;;8.70;1.33;;;18.10;54.30;;;;;;10457920;28;20798;-25
2021/03/14 11:07:37;;;;;;;1.97;0.63;;;18.10;54.40;;;;;;10457514;28;20216;-24
2021/03/14 11:12:59;;;;;;;4.00;0.60;;;18.10;54.40;;;;;;10452343;28;20198;-24
2021/03/14 11:18:22;;;;;;;1.97;0.70;;;18.10;54.40;;;;;;10446431;28;20569;-24
2021/03/14 11:23:45;;;;;;;3.07;0.60;;;18.10;54.40;;;;;;10450741;28;20224;-24
2021/03/14 11:29:08;;;;;;;1.17;0.63;;;18.10;54.40;;;;;;10375197;28;20728;-24
2021/03/14 11:34:30;;;;;;;1.40;0.60;;;18.10;54.40;;;;;;10374779;28;20248;-25
2021/03/14 11:39:52;;;;;;;2.27;0.60;;;18.10;54.40;;;;;;10374575;28;20209;-25
2021/03/14 11:45:15;;;;;;;1.40;0.70;;;18.10;54.40;;;;;;10373952;28;20214;-24
2021/03/14 11:50:36;;;;;;;2.70;0.90;;;18.10;54.40;;;;;;10374426;28;20573;-27
2021/03/14 11:55:59;;;;;;;1.13;0.57;;;18.10;54.40;;;;;;10374920;28;20218;-24
2021/03/14 12:01:20;;;;;;;1.43;0.90;;;18.00;54.40;;;;;;10373653;28;20666;-24
2021/03/14 12:06:42;;;;;;;1.87;0.77;;;18.10;54.40;;;;;;10373705;28;20222;-24
2021/03/14 12:12:06;;;;;;;1.43;0.83;;;18.10;54.50;;;;;;10373708;28;20203;-24
2021/03/14 12:17:27;;;;;;;1.23;0.47;;;18.10;54.50;;;;;;10440575;28;20600;-24
2021/03/14 12:22:49;;;;;;;1.07;0.53;;;18.10;54.50;;;;;;10455531;28;20201;-24
2021/03/14 12:28:11;;;;;;;1.70;0.60;;;18.10;54.50;;;;;;10455503;28;20196;-25
2021/03/14 12:33:33;;;;;;;3.70;0.70;;;18.10;54.50;;;;;;10454959;28;20216;-24
2021/03/14 12:38:55;;;;;;;1.53;0.50;;;18.10;54.50;;;;;;10451727;28;20442;-25
2021/03/14 12:44:17;;;;;;;1.73;0.70;;;18.10;54.70;;;;;;10448461;28;20229;-25
2021/03/14 12:49:39;;;;;;;1.50;0.60;;;18.10;55.40;;;;;;10454565;28;20197;-24
2021/03/14 12:55:01;;;;;;;1.27;0.53;;;18.10;55.70;;;;;;10453389;28;20209;-25
2021/03/14 13:00:24;;;;;;;2.00;0.70;;;18.10;55.90;;;;;;10453795;28;20573;-26
2021/03/14 13:05:45;;;;;;;1.30;0.50;;;18.10;56.10;;;;;;10454211;28;20217;-24
2021/03/14 13:11:07;;;;;;;1.73;0.80;;;18.20;56.10;;;;;;10454192;28;20204;-25
2021/03/14 13:16:29;;;;;;;3.47;0.73;;;18.20;55.30;;;;;;10439664;28;20703;-24
2021/03/14 13:21:51;;;;;;;2.60;0.77;;;18.20;55.70;;;;;;10449506;28;20584;-25
2021/03/14 13:27:13;;;;;;;2.47;0.47;;;18.30;55.00;;;;;;10453504;28;20221;-25
2021/03/14 13:32:36;;;;;;;3.90;0.60;;;18.50;55.20;;;;;;10451964;28;20243;-25
2021/03/14 13:37:58;;;;;;;1.57;0.70;;;18.70;54.50;;;;;;10453993;28;20220;-26
2021/03/14 13:43:19;;;;;;;1.63;0.70;;;18.80;54.00;;;;;;10452877;28;20600;-25
2021/03/14 13:48:44;;;;;;;1.73;0.77;;;19.00;53.70;;;;;;10452689;28;20189;-25
2021/03/14 13:54:06;;;;;;;1.23;0.60;;;19.10;53.70;;;;;;10400356;28;20255;-26
2021/03/14 13:59:27;;;;;;;1.30;0.60;;;19.10;53.70;;;;;;10409912;28;20217;-25
2021/03/14 14:04:50;;;;;;;1.87;0.70;;;19.10;53.60;;;;;;10411445;28;20218;-24
2021/03/14 14:10:12;;;;;;;1.00;0.60;;;19.20;53.60;;;;;;10410552;28;20247;-25
2021/03/14 14:15:34;;;;;;;0.83;0.43;;;19.20;53.50;;;;;;10414259;28;20270;-24
2021/03/14 14:20:57;;;;;;;1.00;0.60;;;19.30;53.50;;;;;;10452957;28;20239;-24
2021/03/14 14:26:19;;;;;;;3.03;0.80;;;19.30;53.50;;;;;;10450820;22;20241;-26
2021/03/14 14:31:40;;;;;;;1.63;0.60;;;19.30;53.60;;;;;;10405498;28;20207;-25
2021/03/14 14:37:03;;;;;;;1.83;0.60;;;19.40;53.70;;;;;;10422212;28;20620;-30
2021/03/14 14:42:25;;;;;;;0.90;0.50;;;19.40;53.70;;;;;;10425910;28;20571;-28
2021/03/14 14:47:46;;;;;;;0.57;0.50;;;19.60;53.60;;;;;;10432216;28;20231;-26
2021/03/14 14:53:09;;;;;;;1.77;0.60;;;19.70;53.20;;;;;;10424856;28;20193;-26
2021/03/14 14:58:30;;;;;;;1.43;0.70;;;19.80;53.10;;;;;;10444789;28;20275;-30
2021/03/14 15:03:52;;;;;;;1.80;0.70;;;19.80;52.90;;;;;;10407635;28;20199;-26
2021/03/14 15:09:15;;;;;;;0.83;0.50;;;19.80;52.90;;;;;;10408266;28;20195;-25
2021/03/14 15:14:37;;;;;;;1.20;0.60;;;19.70;53.00;;;;;;10389520;28;20216;-27
2021/03/14 15:19:59;;;;;;;0.77;0.50;;;19.70;53.00;;;;;;10430626;28;20220;-28
2021/03/14 15:25:21;;;;;;;2.40;0.50;;;19.60;53.20;;;;;;10458456;28;20224;-30
2021/03/14 15:30:43;;;;;;;1.50;0.50;;;19.40;53.50;;;;;;10425621;28;20616;-28
2021/03/14 15:36:05;;;;;;;1.10;0.50;;;19.20;53.80;;;;;;10416764;28;20293;-29
2021/03/14 15:41:27;;;;;;;1.33;0.60;;;19.10;54.00;;;;;;10415935;28;20190;-25
2021/03/14 15:46:49;;;;;;;3.23;0.93;;;19.00;54.20;;;;;;10415946;28;20209;-28
2021/03/14 15:52:10;;;;;;;1.10;0.60;;;18.90;54.40;;;;;;10415464;28;20193;-26
2021/03/14 15:57:33;;;;;;;0.93;0.70;;;18.80;54.60;;;;;;10416423;28;20221;-26
2021/03/14 16:02:54;;;;;;;0.60;0.50;;;18.80;54.60;;;;;;10415096;28;20198;-29
2021/03/14 16:08:16;;;;;;;4.67;0.60;;;18.70;54.60;;;;;;10375618;28;20225;-25
2021/03/14 16:13:39;;;;;;;0.87;0.60;;;18.70;54.40;;;;;;10423073;28;20256;-26
2021/03/14 16:19:01;;;;;;;0.97;0.60;;;18.80;54.50;;;;;;10435594;28;20251;-27
2021/03/14 16:24:23;;;;;;;1.37;0.50;;;18.80;54.60;;;;;;10414388;28;20224;-29
2021/03/14 16:29:45;;;;;;;1.13;0.70;;;18.80;54.60;;;;;;10413358;28;20194;-27
2021/03/14 16:35:09;;;;;;;1.27;0.63;;;18.80;54.70;;;;;;10335668;28;20219;-29
2021/03/14 16:40:31;;;;;;;1.13;0.80;;;18.80;54.80;;;;;;10356856;28;20569;-29
2021/03/14 16:45:55;;;;;;;2.80;1.10;;;18.80;54.80;;;;;;10367398;28;20229;-27
2021/03/14 16:51:17;;;;;;;1.00;0.73;;;18.70;54.80;;;;;;10367784;28;20199;-24
2021/03/14 16:56:39;;;;;;;1.47;1.00;;;18.70;54.80;;;;;;10371535;28;20222;-30
2021/03/14 17:02:03;;;;;;;1.90;0.93;;;18.70;54.80;;;;;;10371505;28;20194;-29
2021/03/14 17:07:24;;;;;;;1.03;0.93;;;18.70;54.90;;;;;;10372160;28;20219;-26
2021/03/14 17:12:46;;;;;;;1.00;0.80;;;18.80;54.90;;;;;;10392000;28;20566;-26
2021/03/14 17:18:08;;;;;;;2.33;0.90;;;18.80;54.90;;;;;;10411465;28;20232;-26
2021/03/14 17:23:30;;;;;;;1.00;0.90;;;18.80;54.80;;;;;;10411486;28;20194;-29
2021/03/14 17:28:52;;;;;;;2.83;1.10;;;18.80;54.80;;;;;;10410974;28;20229;-27
2021/03/14 17:34:14;;;;;;;1.53;0.90;;;18.80;54.90;;;;;;10400661;28;20197;-28
2021/03/14 17:39:36;;;;;;;1.80;1.03;;;18.90;55.00;;;;;;10410759;28;20217;-27
2021/03/14 17:44:57;;;;;;;2.23;1.20;;;18.90;55.00;;;;;;10411026;28;20689;-25
2021/03/14 17:50:21;;;;;;;1.53;0.80;;;18.90;55.10;;;;;;10410833;28;20261;-26
2021/03/14 17:55:42;;;;;;;2.70;1.20;;;18.90;55.00;;;;;;10326838;28;20234;-26
2021/03/14 18:01:04;;;;;;;1.30;0.80;;;19.00;54.70;;;;;;10329309;28;20578;-26
2021/03/14 18:06:27;;;;;;;1.57;0.90;;;19.00;54.50;;;;;;10328839;28;20215;-27
2021/03/14 18:11:48;;;;;;;2.10;1.00;;;18.90;54.40;;;;;;10317436;28;20210;-28
2021/03/14 18:17:10;;;;;;;1.93;0.80;;;18.90;54.50;;;;;;10260012;28;20221;-27
2021/03/14 18:22:32;;;;;;;3.37;1.10;;;18.80;54.40;;;;;;10321725;28;20199;-26
2021/03/14 18:27:54;;;;;;;2.43;0.90;;;18.80;54.40;;;;;;10358648;28;20222;-25
2021/03/14 18:33:16;;;;;;;2.03;1.07;;;18.70;54.40;;;;;;10367967;28;20202;-27
2021/03/14 18:38:38;;;;;;;2.27;1.03;;;18.60;54.60;;;;;;10368573;28;20705;-29
2021/03/14 18:44:00;;;;;;;4.63;1.50;;;18.70;54.70;;;;;;10367899;28;20708;-27
2021/03/14 18:49:21;;;;;;;2.03;1.20;;;18.80;55.00;;;;;;10376083;28;20210;-25
2021/03/14 18:54:44;;;;;;;2.27;1.20;;;18.80;54.80;;;;;;10373336;28;20245;-30
2021/03/14 19:00:08;;;;;;;3.20;1.07;;;18.90;54.80;;;;;;10376771;28;20779;-28
2021/03/14 19:05:29;;;;;;;2.33;1.20;;;18.90;55.10;;;;;;10376294;28;20218;-35
2021/03/14 19:10:52;;;;;;;3.43;1.17;;;18.90;55.20;;;;;;10381395;28;20201;-26
2021/03/14 19:16:13;;;;;;;1.57;1.00;;;18.90;55.30;;;;;;10402883;28;20214;-30
2021/03/14 19:21:35;;;;;;;2.03;1.27;;;18.90;55.20;;;;;;10336298;28;20187;-27
2021/03/14 19:26:58;;;;;;;2.20;1.20;;;18.90;55.10;;;;;;10334206;28;20215;-30
2021/03/14 19:32:19;;;;;;;2.50;1.17;;;18.90;55.30;;;;;;10333951;28;20230;-25
2021/03/14 19:37:41;;;;;;;4.23;1.40;;;18.90;55.40;;;;;;10334528;28;20215;-28
2021/03/14 19:43:03;;;;;;;4.07;1.50;;;19.00;55.40;;;;;;10383926;28;20577;-28
2021/03/14 19:48:26;;;;;;;1.57;1.10;;;19.00;55.00;;;;;;10373838;28;20654;-30
2021/03/14 19:53:47;;;;;;;3.55;1.30;;;19.10;54.30;;;;;;10373303;28;20502;-29
2021/03/14 19:59:10;;;;;;;1.53;0.90;;;19.30;53.70;;;;;;10372487;28;20226;-31
2021/03/14 20:04:32;;;;;;;2.10;1.27;;;19.80;53.00;;;;;;10372897;28;20737;-27
2021/03/14 20:09:53;;;;;;;2.80;1.27;;;20.20;52.10;;;;;;10373328;28;20198;-31
2021/03/14 20:15:18;;;;;;;2.70;1.23;;;20.50;51.30;;;;;;10381704;28;20219;-26
2021/03/14 20:20:40;;;;;;;1.90;0.93;;;20.80;50.70;;;;;;10406742;28;20190;-28
2021/03/14 20:26:02;;;;;;;3.13;1.10;;;21.10;50.00;;;;;;10409386;23;20234;-26
2021/03/14 20:31:25;;;;;;;1.37;0.80;;;21.40;49.50;;;;;;10371928;28;20205;-25
2021/03/14 20:36:46;;;;;;;1.47;0.90;;;21.60;49.10;;;;;;10343131;28;20222;-25
2021/03/14 20:42:08;;;;;;;1.63;1.00;;;21.60;48.90;;;;;;10356188;28;20209;-25
2021/03/14 20:47:31;;;;;;;2.00;1.03;;;21.70;48.70;;;;;;10364320;28;20572;-24
2021/03/14 20:52:52;;;;;;;0.90;0.80;;;21.80;48.50;;;;;;10409996;28;20202;-24
2021/03/14 20:58:14;;;;;;;1.77;1.00;;;22.00;48.30;;;;;;10411902;28;20225;-24
2021/03/14 21:03:37;;;;;;;2.63;0.83;;;22.10;47.90;;;;;;10381417;28;20256;-24
2021/03/14 21:08:59;;;;;;;1.20;0.70;;;22.20;47.80;;;;;;10364107;28;20219;-25
2021/03/14 21:14:20;;;;;;;2.93;0.90;;;22.30;47.60;;;;;;10405068;28;20209;-25
2021/03/14 21:19:43;;;;;;;0.97;0.73;;;22.40;47.40;;;;;;10375161;28;20211;-24
2021/03/14 21:25:08;;;;;;;1.10;0.60;;;22.50;47.40;;;;;;10330861;28;20227;-25
2021/03/14 21:30:29;;;;;;;1.33;0.80;;;22.50;47.30;;;;;;10329966;28;20218;-25
2021/03/14 21:35:52;;;;;;;1.00;0.70;;;22.50;47.20;;;;;;10330248;28;20211;-24
2021/03/14 21:41:14;;;;;;;1.53;0.90;;;22.60;47.10;;;;;;10330196;28;20206;-25
2021/03/14 21:46:37;;;;;;;1.00;0.60;;;22.70;46.80;;;;;;10330053;28;20230;-24
2021/03/14 21:52:00;;;;;;;0.67;0.67;;;22.40;46.80;;;;;;10401810;28;20202;-24
2021/03/14 21:57:21;;;;;;;2.10;0.97;;;21.80;47.60;;;;;;10411609;28;20217;-24
2021/03/14 22:02:43;;;;;;;0.97;0.63;;;21.40;48.50;;;;;;10410572;28;20204;-24
2021/03/14 22:08:06;;;;;;;1.50;0.80;;;21.00;49.30;;;;;;10411616;28;20206;-25
2021/03/14 22:13:28;;;;;;;1.27;0.70;;;20.80;49.90;;;;;;10390366;28;20202;-25
2021/03/14 22:18:49;;;;;;;1.33;0.60;;;20.60;50.30;;;;;;10388983;28;20214;-25
2021/03/14 22:24:12;;;;;;;0.50;0.50;;;20.50;50.50;;;;;;10369691;28;20202;-24
2021/03/14 22:29:34;;;;;;;1.13;0.67;;;20.40;50.70;;;;;;10374139;28;20387;-24
2021/03/14 22:34:57;;;;;;;1.30;0.80;;;20.30;50.80;;;;;;10376481;28;20288;-24
2021/03/14 22:40:21;;;;;;;1.20;0.73;;;20.10;51.20;;;;;;10385417;28;20225;-24
2021/03/14 22:45:44;;;;;;;1.40;0.70;;;20.00;51.40;;;;;;10377699;28;20218;-24
2021/03/14 22:51:06;;;;;;;1.27;0.80;;;19.90;51.60;;;;;;10376937;28;20191;-24
2021/03/14 22:56:28;;;;;;;1.63;1.00;;;19.90;51.60;;;;;;10376066;28;20566;-24
2021/03/14 23:01:50;;;;;;;1.50;0.60;;;19.90;51.70;;;;;;10380849;28;20209;-24
2021/03/14 23:07:12;;;;;;;1.27;0.80;;;19.80;51.80;;;;;;10403740;28;20688;-24
2021/03/14 23:12:34;;;;;;;2.10;0.60;;;19.70;52.10;;;;;;10405069;28;20190;-25
2021/03/14 23:17:57;;;;;;;1.53;0.80;;;19.60;52.10;;;;;;10385622;28;20607;-25
2021/03/14 23:23:22;;;;;;;2.27;0.87;;;19.60;52.10;;;;;;10335133;28;20679;-23
2021/03/14 23:28:47;;;;;;;1.37;0.67;;;19.60;52.10;;;;;;10334383;28;20229;-25
2021/03/14 23:34:08;;;;;;;1.30;0.60;;;19.60;52.20;;;;;;10334816;28;20231;-25
2021/03/14 23:39:30;;;;;;;2.33;0.80;;;19.50;52.30;;;;;;10333603;28;20219;-25
2021/03/14 23:44:52;;;;;;;2.20;0.97;;;19.50;52.50;;;;;;10341554;28;20222;-26
2021/03/14 23:50:15;;;;;;;0.90;0.67;;;19.50;52.50;;;;;;10401794;28;20203;-26
2021/03/14 23:55:36;;;;;;;1.87;1.00;;;19.50;52.50;;;;;;10414909;28;20221;-26
